Time;durP1;ratioP1;P1;durP2;ratioP2;P2;SDS_P1;SDS_P2;PMS_P1;PMS_P2;Temp;Humidity;BMP_temperature;BMP_pressure;BME280_temperature;BME280_humidity;BME280_pressure;Samples;Min_cycle;Max_cycle;Signal;HPM_P1;HPM_P2
2023/07/05 00:00:45;;;;;;;5.63;3.28;;;;;;;20.05;53.13;96369.41;4936014;29;20058;-77
2023/07/05 00:03:12;;;;;;;4.18;2.70;;;;;;;20.12;52.95;96369.22;4936221;29;20492;-78
2023/07/05 00:05:41;;;;;;;3.35;2.53;;;;;;;20.15;52.92;96389.91;4936142;29;20059;-77
2023/07/05 00:08:09;;;;;;;4.32;2.55;;;;;;;20.21;52.98;96393.44;4936126;29;20139;-77
2023/07/05 00:10:37;;;;;;;2.83;2.53;;;;;;;20.22;52.84;96360.59;4935601;29;20075;-78
2023/07/05 00:13:05;;;;;;;2.88;2.10;;;;;;;20.24;53.05;96353.19;4936025;29;20108;-77
2023/07/05 00:15:33;;;;;;;8.95;3.33;;;;;;;20.25;53.26;96346.84;4935842;29;20131;-77
2023/07/05 00:18:00;;;;;;;7.47;3.17;;;;;;;20.25;53.29;96344.22;4936031;29;20408;-78
2023/07/05 00:20:28;;;;;;;4.35;2.72;;;;;;;20.23;54.03;96346.31;4935665;29;20052;-77
2023/07/05 00:22:57;;;;;;;5.30;2.75;;;;;;;20.20;54.30;96344.13;4935811;29;20048;-77
2023/07/05 00:25:25;;;;;;;4.82;3.00;;;;;;;20.15;54.35;96347.53;4935743;29;20134;-77
2023/07/05 00:27:53;;;;;;;3.35;2.50;;;;;;;20.03;55.24;96336.28;4935678;29;20481;-77
2023/07/05 00:30:20;;;;;;;4.35;2.75;;;;;;;19.92;55.88;96338.03;4935373;29;20135;-77
2023/07/05 00:32:48;;;;;;;3.58;2.65;;;;;;;19.80;56.63;96330.19;4935757;29;20082;-77
2023/07/05 00:35:15;;;;;;;4.07;3.05;;;;;;;19.69;57.18;96329.28;4936354;29;20461;-77
2023/07/05 00:37:43;;;;;;;4.25;2.55;;;;;;;19.56;57.76;96333.06;4935887;29;20134;-77
2023/07/05 00:40:12;;;;;;;3.92;2.80;;;;;;;19.46;58.57;96334.75;4935547;29;20139;-77
2023/07/05 00:42:40;;;;;;;4.85;3.00;;;;;;;19.38;58.88;96337.84;4935689;29;20055;-77
2023/07/05 00:45:40;;;;;;;3.72;2.90;;;;;;;19.30;59.51;96336.41;4936097;29;20051;-77
2023/07/05 00:48:13;;;;;;;5.53;3.33;;;;;;;19.21;59.96;96343.97;4929350;29;20099;-77
2023/07/05 00:50:43;;;;;;;6.80;3.47;;;;;;;19.12;60.22;96340.13;4936181;29;20086;-78
2023/07/05 00:53:13;;;;;;;4.80;2.70;;;;;;;19.00;60.50;96326.19;4936117;29;20502;-77
2023/07/05 00:55:53;;;;;;;4.70;3.05;;;;;;;18.93;61.21;96327.19;4936215;29;20597;-77
2023/07/05 00:58:23;;;;;;;2.72;2.50;;;;;;;18.89;61.30;96335.81;4935621;29;20079;-77
2023/07/05 01:00:51;;;;;;;5.93;3.40;;;;;;;18.87;61.32;96322.03;4935784;29;20048;-78
2023/07/05 01:03:21;;;;;;;5.55;2.88;;;;;;;18.83;61.52;96320.94;4938179;29;20051;-77
2023/07/05 01:05:56;;;;;;;4.03;2.95;;;;;;;18.83;62.03;96324.38;4935072;29;20549;-78
2023/07/05 01:08:24;;;;;;;11.20;2.78;;;;;;;18.82;61.75;96320.09;4935059;29;20051;-77
2023/07/05 01:11:02;;;;;;;4.85;2.80;;;;;;;18.82;62.32;96314.81;4935126;29;20051;-77
2023/07/05 01:13:35;;;;;;;4.13;2.47;;;;;;;18.80;62.29;96306.34;4935403;29;20055;-77
2023/07/05 01:16:17;;;;;;;4.05;3.00;;;;;;;18.81;62.57;96296.59;4935144;29;20055;-77
2023/07/05 01:18:49;;;;;;;6.50;2.70;;;;;;;18.82;62.36;96292.88;4935209;29;20086;-77
2023/07/05 01:21:24;;;;;;;3.75;3.00;;;;;;;18.79;62.71;96288.91;4935772;29;20111;-78
2023/07/05 01:24:10;;;;;;;5.60;2.85;;;;;;;18.74;63.01;96286.16;4935099;29;20492;-78
2023/07/05 01:27:23;;;;;;;3.72;2.92;;;;;;;18.70;63.04;96287.69;4935524;29;20148;-78
2023/07/05 01:30:12;;;;;;;2.83;2.63;;;;;;;18.64;63.46;96286.00;4926590;29;20542;-77
2023/07/05 01:32:51;;;;;;;3.67;2.50;;;;;;;18.62;63.68;96290.72;4935236;29;20110;-77
2023/07/05 01:35:23;;;;;;;4.63;2.58;;;;;;;18.64;63.87;96280.69;4935190;29;20044;-77
2023/07/05 01:37:51;;;;;;;4.10;3.05;;;;;;;18.65;63.45;96285.75;4935151;29;20135;-78
2023/07/05 01:40:54;;;;;;;4.28;2.83;;;;;;;18.66;63.73;96284.69;4934694;29;20047;-78
2023/07/05 01:43:24;;;;;;;3.58;2.40;;;;;;;18.64;63.52;96280.69;4934438;29;20579;-77
2023/07/05 01:46:03;;;;;;;4.80;3.13;;;;;;;18.62;64.11;96280.16;4934374;29;20511;-77
2023/07/05 01:48:42;;;;;;;4.85;2.78;;;;;;;18.57;64.30;96275.59;4934421;29;20507;-77
2023/07/05 01:51:16;;;;;;;6.40;2.67;;;;;;;18.51;64.46;96276.53;4934235;29;20071;-77
2023/07/05 01:53:52;;;;;;;6.20;3.20;;;;;;;18.48;64.89;96272.53;4934537;29;20062;-78
2023/07/05 01:56:25;;;;;;;4.00;3.33;;;;;;;18.49;64.65;96284.69;4934741;29;20056;-77
2023/07/05 01:58:57;;;;;;;4.72;3.13;;;;;;;18.43;64.91;96269.00;4934359;29;20083;-77
2023/07/05 02:01:27;;;;;;;4.38;3.45;;;;;;;18.36;65.17;96277.09;4934038;29;20563;-78
2023/07/05 02:03:56;;;;;;;5.70;3.53;;;;;;;18.29;65.33;96276.44;4934193;29;20044;-77
2023/07/05 02:06:25;;;;;;;6.25;3.03;;;;;;;18.24;65.60;96282.44;4939653;29;20052;-77
2023/07/05 02:08:53;;;;;;;4.13;3.08;;;;;;;18.22;65.75;96268.69;4951977;29;20051;-77
2023/07/05 02:11:22;;;;;;;5.38;3.17;;;;;;;18.18;65.97;96264.91;4947387;29;20431;-77
2023/07/05 02:13:50;;;;;;;6.18;3.10;;;;;;;18.19;65.95;96261.25;4938643;29;20047;-77
2023/07/05 02:16:17;;;;;;;3.70;2.92;;;;;;;18.19;66.14;96249.88;4937810;29;20056;-77
2023/07/05 02:18:45;;;;;;;4.60;3.22;;;;;;;18.16;66.08;96253.78;4937819;29;20111;-77
2023/07/05 02:21:14;;;;;;;4.82;3.55;;;;;;;18.17;66.47;96260.69;4937600;29;20305;-77
2023/07/05 02:23:42;;;;;;;4.65;2.92;;;;;;;18.21;66.27;96248.56;4937612;29;20056;-77
2023/07/05 02:26:10;;;;;;;4.40;3.00;;;;;;;18.21;65.89;96250.44;4937756;29;20079;-77
2023/07/05 02:28:37;;;;;;;3.63;2.88;;;;;;;18.20;66.09;96257.56;4937753;29;20150;-77
2023/07/05 02:31:06;;;;;;;6.03;3.03;;;;;;;18.23;66.00;96264.97;4937265;29;20500;-77
2023/07/05 02:33:35;;;;;;;3.45;2.92;;;;;;;18.23;65.78;96262.34;4937661;29;20051;-77
2023/07/05 02:36:09;;;;;;;3.92;2.90;;;;;;;18.23;66.31;96267.63;4937539;29;20051;-77
2023/07/05 02:38:39;;;;;;;5.03;2.90;;;;;;;18.21;66.05;96260.97;4937431;29;20178;-77
2023/07/05 02:41:06;;;;;;;7.28;3.20;;;;;;;18.18;66.10;96261.47;4937136;29;20075;-77
2023/07/05 02:43:35;;;;;;;4.47;3.15;;;;;;;18.15;66.15;96261.94;4937155;29;20476;-77
2023/07/05 02:46:05;;;;;;;7.95;3.13;;;;;;;18.11;66.35;96262.41;4936957;29;20138;-77
2023/07/05 02:48:33;;;;;;;5.13;2.88;;;;;;;18.10;66.40;96249.44;4937070;29;20052;-77
2023/07/05 02:51:00;;;;;;;3.53;2.85;;;;;;;18.09;66.42;96250.50;4936733;29;20059;-77
2023/07/05 02:53:28;;;;;;;3.95;2.92;;;;;;;18.07;66.62;96237.53;4937076;29;20130;-77
2023/07/05 02:55:57;;;;;;;6.47;3.50;;;;;;;18.04;66.90;96234.59;4937073;29;20051;-77
2023/07/05 02:58:25;;;;;;;9.68;3.53;;;;;;;18.01;66.76;96235.84;4937066;29;20094;-77
2023/07/05 03:00:52;;;;;;;4.22;2.58;;;;;;;18.00;67.04;96244.00;4937023;29;20087;-77
2023/07/05 03:03:21;;;;;;;5.22;3.10;;;;;;;18.03;66.93;96262.00;4937056;29;20099;-77
2023/07/05 03:05:55;;;;;;;6.05;3.28;;;;;;;18.05;67.31;96270.50;4936707;29;20051;-77
2023/07/05 03:08:25;;;;;;;4.40;2.90;;;;;;;18.08;66.88;96289.31;4936922;29;20102;-77
2023/07/05 03:10:53;;;;;;;3.13;2.83;;;;;;;18.12;66.69;96293.03;4936739;29;20052;-77
2023/07/05 03:13:23;;;;;;;4.65;2.92;;;;;;;18.14;66.63;96292.81;4936803;29;20099;-77
2023/07/05 03:15:51;;;;;;;3.47;2.83;;;;;;;18.15;66.86;96275.13;4937158;29;20507;-77
2023/07/05 03:18:19;;;;;;;3.55;2.47;;;;;;;18.21;66.60;96303.22;4935760;29;20056;-77
2023/07/05 03:20:47;;;;;;;2.60;2.28;;;;;;;18.31;66.56;96298.13;4936246;29;20055;-77
2023/07/05 03:23:15;;;;;;;4.55;2.10;;;;;;;18.40;65.38;96301.19;4936397;29;20062;-77
2023/07/05 03:25:54;;;;;;;3.58;1.98;;;;;;;18.51;65.31;96298.47;4940182;29;20099;-77
2023/07/05 03:28:24;;;;;;;4.15;2.63;;;;;;;18.58;65.34;96293.03;4947364;29;20066;-78
2023/07/05 03:30:57;;;;;;;4.03;2.58;;;;;;;18.63;66.04;96302.88;4943857;29;20047;-78
2023/07/05 03:33:25;;;;;;;3.03;2.50;;;;;;;18.64;65.68;96286.00;4936263;29;20071;-77
2023/07/05 03:35:54;;;;;;;5.57;2.85;;;;;;;18.59;66.05;96299.13;4936444;29;20086;-77
2023/07/05 03:38:24;;;;;;;4.95;2.83;;;;;;;18.58;66.27;96297.50;4936124;29;20051;-77
2023/07/05 03:40:57;;;;;;;3.83;2.50;;;;;;;18.57;65.91;96303.84;4935730;29;20519;-77
2023/07/05 03:43:27;;;;;;;3.80;2.13;;;;;;;18.58;65.61;96306.22;4936155;29;20052;-79
2023/07/05 03:45:55;;;;;;;4.72;1.92;;;;;;;18.62;65.06;96317.91;4935902;29;20052;-77
2023/07/05 03:48:23;;;;;;;1.83;1.45;;;;;;;18.67;64.92;96333.06;4935952;29;20051;-77
2023/07/05 03:50:50;;;;;;;3.08;2.20;;;;;;;18.73;64.16;96354.03;4935806;29;20591;-77
2023/07/05 03:53:18;;;;;;;3.78;1.83;;;;;;;18.81;64.38;96362.66;4936048;29;20052;-77
2023/07/05 03:55:46;;;;;;;4.38;2.75;;;;;;;18.85;64.43;96369.06;4935902;29;20107;-78
2023/07/05 03:58:13;;;;;;;3.72;2.25;;;;;;;18.87;65.07;96366.94;4935997;29;20087;-77
2023/07/05 04:00:42;;;;;;;3.42;2.05;;;;;;;18.90;65.29;96375.22;4935626;29;20052;-77
2023/07/05 04:03:10;;;;;;;2.10;1.70;;;;;;;18.93;65.19;96385.31;4935988;29;20052;-78
2023/07/05 04:05:38;;;;;;;2.58;1.73;;;;;;;18.99;65.32;96385.41;4935731;29;20130;-77
2023/07/05 04:08:05;;;;;;;2.42;1.88;;;;;;;19.01;65.43;96391.25;4935616;29;20147;-77
2023/07/05 04:10:33;;;;;;;4.55;1.83;;;;;;;19.00;65.87;96398.38;4935354;29;20095;-77
2023/07/05 04:13:00;;;;;;;3.25;1.42;;;;;;;19.01;65.76;96407.09;4935458;29;20126;-77
2023/07/05 04:15:28;;;;;;;4.40;1.48;;;;;;;19.01;66.14;96407.91;4935709;29;20106;-77
2023/07/05 04:17:57;;;;;;;3.28;1.80;;;;;;;19.01;66.30;96415.03;4935667;29;20472;-77
2023/07/05 04:20:30;;;;;;;2.42;1.50;;;;;;;19.00;66.31;96408.13;4935228;29;20103;-78
2023/07/05 04:22:59;;;;;;;4.05;2.13;;;;;;;18.96;66.96;96394.63;4935686;29;20138;-77
2023/07/05 04:25:27;;;;;;;3.60;1.83;;;;;;;18.94;67.16;96378.97;4935148;29;20051;-77
2023/07/05 04:27:54;;;;;;;2.97;1.90;;;;;;;18.94;68.09;96376.34;4935502;29;20138;-77
2023/07/05 04:30:22;;;;;;;5.55;1.92;;;;;;;18.91;67.94;96386.59;4934974;29;20079;-77
2023/07/05 04:32:49;;;;;;;2.58;1.95;;;;;;;18.90;68.21;96383.16;4935299;29;20146;-77
2023/07/05 04:35:19;;;;;;;2.65;1.42;;;;;;;18.91;68.32;96387.41;4936012;29;20518;-78
2023/07/05 04:37:46;;;;;;;2.50;1.70;;;;;;;18.92;67.96;96377.63;4935394;29;20058;-77
2023/07/05 04:40:14;;;;;;;3.58;1.55;;;;;;;18.96;67.81;96370.81;4935245;29;20052;-77
2023/07/05 04:51:07;;;;;;;2.33;2.00;;;;;;;18.93;68.49;96356.25;4897563;29;20093;-82
2023/07/05 04:53:35;;;;;;;3.92;2.42;;;;;;;18.89;68.78;96362.22;4900038;29;20076;-84
2023/07/05 04:56:02;;;;;;;2.40;2.03;;;;;;;18.79;68.70;96348.88;4893400;29;20052;-85
2023/07/05 04:58:32;;;;;;;2.97;2.08;;;;;;;18.73;69.45;96359.31;4896992;29;20041;-84
2023/07/05 05:01:02;;;;;;;2.05;1.83;;;;;;;18.69;69.02;96360.84;4898846;29;20112;-82
2023/07/05 05:03:31;;;;;;;3.35;1.80;;;;;;;18.68;68.82;96348.66;4916295;29;20051;-81
2023/07/05 05:06:00;;;;;;;3.83;1.77;;;;;;;18.69;69.35;96352.94;4918663;29;20054;-82
2023/07/05 05:08:29;;;;;;;1.98;1.70;;;;;;;18.74;69.14;96365.41;4918721;29;20115;-81
2023/07/05 05:10:58;;;;;;;2.65;1.77;;;;;;;18.79;68.79;96354.16;4914417;29;20365;-79
2023/07/05 05:13:27;;;;;;;1.73;1.30;;;;;;;18.84;68.59;96347.09;4900820;29;20083;-83
2023/07/05 05:15:55;;;;;;;2.72;0.90;;;;;;;18.91;68.28;96354.88;4898185;29;20496;-77
2023/07/05 05:18:24;;;;;;;2.55;0.82;;;;;;;18.96;67.95;96341.75;4897285;29;20146;-76
2023/07/05 05:20:52;;;;;;;0.90;0.80;;;;;;;19.01;66.84;96335.72;4896524;29;20556;-77
2023/07/05 05:23:20;;;;;;;5.53;1.05;;;;;;;19.01;67.17;96343.66;4897809;29;20398;-77
2023/07/05 05:25:49;;;;;;;1.20;1.10;;;;;;;19.06;67.06;96341.09;4896721;29;20044;-77
2023/07/05 05:28:17;;;;;;;1.20;0.90;;;;;;;19.04;66.35;96338.69;4896466;29;20059;-77
2023/07/05 05:30:45;;;;;;;2.03;1.40;;;;;;;19.03;66.93;96334.44;4896667;29;20151;-77
2023/07/05 05:33:15;;;;;;;1.30;1.10;;;;;;;19.08;67.35;96344.28;4896895;29;20098;-77
2023/07/05 05:35:47;;;;;;;1.58;1.30;;;;;;;19.07;67.01;96342.72;4897131;29;20052;-77
2023/07/05 05:38:17;;;;;;;1.17;1.08;;;;;;;19.07;67.35;96337.41;4896613;29;20052;-77
2023/07/05 05:40:45;;;;;;;1.52;1.05;;;;;;;19.08;67.27;96341.66;4897013;29;20044;-77
2023/07/05 05:43:14;;;;;;;1.48;1.30;;;;;;;19.08;67.18;96333.72;4900518;29;20052;-77
2023/07/05 05:45:42;;;;;;;1.65;1.08;;;;;;;19.04;67.24;96338.69;4900629;29;20123;-77
2023/07/05 05:48:10;;;;;;;1.73;1.00;;;;;;;18.98;67.11;96328.28;4900113;29;20504;-77
2023/07/05 05:50:37;;;;;;;1.73;0.98;;;;;;;18.89;67.29;96328.69;4899979;29;20128;-77
2023/07/05 05:53:05;;;;;;;1.83;1.08;;;;;;;18.81;67.05;96329.09;4901625;29;20109;-77
2023/07/05 05:55:33;;;;;;;2.65;1.10;;;;;;;18.77;67.55;96332.44;4902220;29;20084;-77
2023/07/05 05:58:00;;;;;;;1.42;1.20;;;;;;;18.73;67.79;96332.88;4900187;29;20052;-77
2023/07/05 06:00:29;;;;;;;1.52;1.10;;;;;;;18.70;67.98;96332.59;4900289;29;20053;-77
2023/07/05 06:02:57;;;;;;;2.05;1.13;;;;;;;18.69;68.33;96325.69;4903607;29;20087;-78
2023/07/05 06:05:25;;;;;;;3.05;1.42;;;;;;;18.67;69.10;96327.75;4902705;29;20572;-77
2023/07/05 06:07:53;;;;;;;3.70;1.23;;;;;;;18.70;69.08;96327.31;4904435;29;20056;-78
2023/07/05 06:10:22;;;;;;;1.88;1.20;;;;;;;18.77;69.45;96322.66;4902280;29;20080;-78
2023/07/05 06:12:49;;;;;;;2.00;0.80;;;;;;;18.86;68.93;96318.59;4902110;29;20056;-78
2023/07/05 06:15:17;;;;;;;1.30;0.95;;;;;;;18.98;68.41;96317.69;4902264;29;20543;-78
2023/07/05 06:17:46;;;;;;;3.65;1.35;;;;;;;19.07;68.27;96311.78;4902868;29;20087;-78
2023/07/05 06:20:15;;;;;;;2.58;1.27;;;;;;;19.15;68.36;96321.13;4903677;29;20520;-78
2023/07/05 06:22:43;;;;;;;4.45;1.30;;;;;;;19.24;68.14;96327.63;4920899;29;20053;-78
2023/07/05 06:25:11;;;;;;;2.28;1.92;;;;;;;19.31;67.87;96333.53;4920748;29;20037;-78
2023/07/05 06:27:39;;;;;;;2.47;1.67;;;;;;;19.37;68.14;96336.22;4906419;29;20568;-78
2023/07/05 06:30:07;;;;;;;1.80;1.48;;;;;;;19.43;67.96;96348.50;4902093;29;20153;-78
2023/07/05 06:32:35;;;;;;;3.15;2.20;;;;;;;19.50;67.88;96342.00;4902573;29;20052;-78
2023/07/05 06:35:05;;;;;;;4.55;1.80;;;;;;;19.58;67.81;96338.09;4902238;29;20056;-78
2023/07/05 06:37:33;;;;;;;2.20;1.48;;;;;;;19.64;67.35;96337.13;4901736;29;20048;-78
2023/07/05 06:40:00;;;;;;;2.00;1.40;;;;;;;19.69;66.87;96344.34;4901836;29;20095;-78
2023/07/05 06:42:28;;;;;;;2.10;1.83;;;;;;;19.73;66.79;96348.13;4901002;29;20056;-78
2023/07/05 06:44:56;;;;;;;2.53;1.70;;;;;;;19.78;66.78;96347.38;4901051;29;20060;-78
2023/07/05 06:47:24;;;;;;;3.13;1.25;;;;;;;19.80;66.83;96350.59;4901521;29;20492;-77
2023/07/05 06:49:51;;;;;;;3.15;1.40;;;;;;;19.85;66.79;96350.63;4901473;29;20116;-78
2023/07/05 06:52:20;;;;;;;1.55;1.20;;;;;;;19.89;66.66;96357.81;4901694;29;20107;-78
2023/07/05 06:54:48;;;;;;;1.92;1.75;;;;;;;19.93;66.79;96355.50;4901636;29;20550;-78
2023/07/05 06:57:15;;;;;;;4.40;2.00;;;;;;;19.98;66.69;96360.84;4902398;29;20053;-79
2023/07/05 06:59:44;;;;;;;1.88;1.25;;;;;;;20.02;66.35;96354.00;4900874;29;20091;-78
2023/07/05 07:02:12;;;;;;;2.63;1.50;;;;;;;20.05;66.13;96358.81;4900826;29;20060;-78
2023/07/05 07:04:39;;;;;;;1.60;1.40;;;;;;;20.06;66.38;96357.78;4900802;29;20052;-78
2023/07/05 07:07:07;;;;;;;2.50;1.23;;;;;;;20.09;66.15;96356.47;4900554;29;20076;-79
2023/07/05 07:09:36;;;;;;;1.95;0.80;;;;;;;20.11;66.21;96367.63;4900422;29;20084;-78
2023/07/05 07:12:07;;;;;;;1.50;1.23;;;;;;;20.14;66.06;96380.38;4900926;29;20112;-78
2023/07/05 07:14:35;;;;;;;2.25;1.38;;;;;;;20.17;65.99;96366.63;4900569;29;20048;-78
2023/07/05 07:17:03;;;;;;;1.42;1.08;;;;;;;20.24;65.68;96371.72;4900109;29;20052;-78
2023/07/05 07:19:30;;;;;;;1.38;0.85;;;;;;;20.27;65.52;96357.97;4900662;29;20101;-77
2023/07/05 07:21:58;;;;;;;1.17;1.08;;;;;;;20.31;65.53;96362.56;4900714;29;20140;-78
2023/07/05 07:24:28;;;;;;;0.90;0.90;;;;;;;20.36;65.42;96359.16;4900939;29;20056;-78
2023/07/05 07:26:57;;;;;;;3.08;1.35;;;;;;;20.44;65.82;96353.38;4900578;29;20111;-78
2023/07/05 07:29:25;;;;;;;2.28;1.08;;;;;;;20.50;65.65;96370.94;4900197;29;20108;-78
2023/07/05 07:31:52;;;;;;;1.60;1.20;;;;;;;20.58;66.08;96359.91;4900692;29;20095;-79
2023/07/05 07:34:23;;;;;;;3.45;1.10;;;;;;;20.67;65.73;96365.56;4904151;29;20143;-78
2023/07/05 07:36:51;;;;;;;2.10;1.20;;;;;;;20.71;65.43;96360.56;4901428;29;20048;-78
2023/07/05 07:39:19;;;;;;;1.90;1.15;;;;;;;20.75;65.15;96373.06;4900271;29;20056;-78
2023/07/05 07:41:46;;;;;;;1.63;1.23;;;;;;;20.75;64.45;96367.75;4900698;29;20316;-78
2023/07/05 07:44:19;;;;;;;1.92;1.00;;;;;;;20.81;65.20;96371.25;4901099;29;20052;-79
2023/07/05 07:46:46;;;;;;;;;;;;;;;20.90;64.66;96385.66;4915658;29;20041;-78
2023/07/05 07:49:14;;;;;;;2.83;1.52;;;;;;;20.98;64.29;96371.91;4919675;29;19930;-78
2023/07/05 07:51:44;;;;;;;2.25;1.02;;;;;;;21.03;63.45;96373.78;4920093;29;20452;-78
2023/07/05 07:54:14;;;;;;;2.33;1.30;;;;;;;21.08;63.66;96379.16;4918647;29;20048;-78
2023/07/05 07:56:43;;;;;;;1.80;1.50;;;;;;;21.10;63.46;96369.09;4911184;29;20048;-78
2023/07/05 07:59:11;;;;;;;1.88;1.50;;;;;;;21.16;63.24;96368.06;4913099;29;20076;-78
2023/07/05 08:01:40;;;;;;;4.53;1.40;;;;;;;21.22;63.21;96376.88;4904922;29;20088;-79
2023/07/05 08:04:11;;;;;;;1.60;1.30;;;;;;;21.23;63.08;96389.09;4900709;29;20140;-78
2023/07/05 08:06:42;;;;;;;3.08;1.20;;;;;;;21.22;63.09;96429.91;4901404;29;20079;-78
2023/07/05 08:09:12;;;;;;;1.60;0.88;;;;;;;21.16;62.05;96452.13;4900907;29;20064;-79
2023/07/05 08:11:39;;;;;;;2.65;1.25;;;;;;;20.91;62.50;96456.19;4901266;29;20413;-78
2023/07/05 08:14:08;;;;;;;3.25;1.40;;;;;;;20.61;63.68;96455.88;4900704;29;20060;-78
2023/07/05 08:16:35;;;;;;;4.95;1.35;;;;;;;20.40;64.70;96439.72;4900526;29;20424;-78
2023/07/05 08:19:04;;;;;;;1.80;1.08;;;;;;;20.20;65.26;96447.41;4900527;29;20064;-78
2023/07/05 08:21:32;;;;;;;1.85;0.98;;;;;;;19.97;65.56;96451.91;4900813;29;20120;-78
2023/07/05 08:24:00;;;;;;;1.30;0.70;;;;;;;19.80;66.47;96462.53;4899978;29;20100;-78
2023/07/05 08:26:48;;;;;;;1.73;0.90;;;;;;;19.65;67.19;96465.72;4900082;29;20071;-79
2023/07/05 08:29:15;;;;;;;3.47;0.95;;;;;;;19.62;67.78;96468.06;4898996;29;20048;-78
2023/07/05 08:31:43;;;;;;;2.10;0.88;;;;;;;19.62;67.98;96466.22;4901004;29;20516;-78
2023/07/05 08:34:12;;;;;;;2.63;1.20;;;;;;;19.60;68.34;96478.91;4906228;29;20059;-78
2023/07/05 08:36:41;;;;;;;2.13;0.98;;;;;;;19.57;68.52;96468.81;4900458;29;20112;-78
2023/07/05 08:39:11;;;;;;;1.52;1.05;;;;;;;19.52;68.59;96464.22;4898891;29;20083;-78
2023/07/05 08:41:55;;;;;;;2.50;1.35;;;;;;;19.52;69.41;96481.94;4899889;29;20062;-78
2023/07/05 08:44:26;;;;;;;1.77;0.98;;;;;;;19.46;69.78;96478.44;4899840;29;20083;-78
2023/07/05 08:46:59;;;;;;;3.87;1.53;;;;;;;19.44;70.14;96472.56;4899855;29;20362;-78
2023/07/05 08:49:33;;;;;;;1.17;1.08;;;;;;;19.47;70.42;96473.94;4899183;29;20294;-78
2023/07/05 08:52:02;;;;;;;2.30;1.30;;;;;;;19.50;70.15;96462.84;4899587;29;20151;-79
2023/07/05 08:54:32;;;;;;;2.50;1.30;;;;;;;19.56;70.39;96473.28;4899268;29;20485;-78
2023/07/05 08:57:05;;;;;;;2.22;1.30;;;;;;;19.56;70.59;96486.50;4899634;29;20128;-78
2023/07/05 08:59:42;;;;;;;2.78;1.33;;;;;;;19.55;70.65;96486.75;4899271;29;20052;-78
2023/07/05 09:02:11;;;;;;;1.85;1.05;;;;;;;19.57;70.26;96495.25;4899921;29;20436;-78
2023/07/05 09:04:40;;;;;;;3.35;1.33;;;;;;;19.62;70.18;96497.97;4899518;29;20056;-78
2023/07/05 09:07:18;;;;;;;4.20;1.50;;;;;;;19.64;69.15;96495.91;4900193;29;20061;-78
2023/07/05 09:09:54;;;;;;;1.15;1.10;;;;;;;19.64;69.07;96498.53;4898968;29;20053;-78
2023/07/05 09:12:30;;;;;;;1.33;0.90;;;;;;;19.66;68.96;96503.59;4899754;29;20131;-78
2023/07/05 09:15:12;;;;;;;2.55;1.27;;;;;;;19.67;69.08;96513.94;4899667;29;20487;-78
2023/07/05 09:17:58;;;;;;;;;;;;;;;19.68;68.80;96518.19;4903641;29;20473;-79
2023/07/05 09:20:51;;;;;;;1.33;1.23;;;;;;;19.68;68.36;96517.41;4902422;29;20296;-78
2023/07/05 09:23:26;;;;;;;2.10;1.27;;;;;;;19.65;69.18;96518.66;4903100;29;20060;-79
2023/07/05 09:26:02;;;;;;;2.08;1.40;;;;;;;19.62;69.65;96524.44;4903259;29;20427;-78
2023/07/05 09:28:36;;;;;;;4.28;1.63;;;;;;;19.63;69.77;96504.84;4902284;29;20056;-78
2023/07/05 09:31:11;;;;;;;5.45;1.52;;;;;;;19.69;70.06;96493.34;4903157;29;20053;-78
2023/07/05 09:33:45;;;;;;;3.03;1.70;;;;;;;19.75;70.08;96499.53;4902937;29;20556;-78
2023/07/05 09:36:21;;;;;;;4.07;1.60;;;;;;;19.80;70.18;96509.38;4903480;29;20104;-78
2023/07/05 09:38:55;;;;;;;2.30;1.05;;;;;;;19.78;69.80;96514.91;4903063;29;20087;-78
2023/07/05 09:41:38;;;;;;;3.70;1.95;;;;;;;19.73;71.32;96533.38;4902502;29;20539;-79
2023/07/05 09:44:05;;;;;;;2.47;1.60;;;;;;;19.66;71.64;96530.84;4903141;29;20077;-78
2023/07/05 09:46:35;;;;;;;2.10;1.45;;;;;;;19.52;69.49;96542.78;4902291;29;20501;-78
2023/07/05 09:49:11;;;;;;;4.85;1.70;;;;;;;19.32;70.12;96530.81;4901953;29;20076;-78
2023/07/05 09:51:42;;;;;;;3.40;1.58;;;;;;;19.14;70.50;96541.63;4901955;29;20053;-78
2023/07/05 09:54:16;;;;;;;3.47;1.70;;;;;;;19.06;70.86;96558.66;4902329;29;20056;-78
2023/07/05 09:56:59;;;;;;;2.55;1.50;;;;;;;19.04;70.75;96559.94;4902368;29;20152;-79
2023/07/05 09:59:26;;;;;;;;;;;;;;;19.03;71.10;96558.34;4902164;29;20077;-78
2023/07/05 10:02:01;;;;;;;2.88;1.83;;;;;;;18.99;70.48;96559.84;4902071;29;19970;-78
2023/07/05 10:04:29;;;;;;;3.72;1.70;;;;;;;18.90;70.67;96554.94;4902836;29;20052;-79
2023/07/05 10:07:00;;;;;;;2.85;1.50;;;;;;;18.84;71.64;96561.16;4902514;29;20112;-78
2023/07/05 10:09:28;;;;;;;4.15;1.85;;;;;;;18.80;71.25;96564.50;4901847;29;20815;-79
2023/07/05 10:11:57;;;;;;;2.80;1.73;;;;;;;18.81;72.31;96572.22;4902300;29;20151;-78
2023/07/05 10:14:28;;;;;;;2.45;1.63;;;;;;;18.92;72.65;96566.09;4901747;29;20064;-78
2023/07/05 10:16:58;;;;;;;2.65;2.15;;;;;;;19.04;72.62;96567.88;4902472;29;20048;-78
2023/07/05 10:19:30;;;;;;;2.90;2.05;;;;;;;19.16;71.55;96573.91;4902373;29;20088;-79
2023/07/05 10:22:07;;;;;;;4.13;2.08;;;;;;;19.27;71.62;96565.13;4901502;29;20052;-79
2023/07/05 10:24:43;;;;;;;2.50;1.90;;;;;;;19.40;71.54;96573.81;4901767;29;20056;-78
2023/07/05 10:27:21;;;;;;;3.90;2.45;;;;;;;19.53;69.85;96570.88;4901089;29;20068;-78
2023/07/05 10:29:50;;;;;;;3.05;2.28;;;;;;;19.66;68.35;96575.03;4901495;29;20136;-78
2023/07/05 10:32:19;;;;;;;2.78;2.30;;;;;;;19.77;68.22;96582.13;4901249;29;20104;-78
2023/07/05 10:34:50;;;;;;;3.05;2.60;;;;;;;19.85;67.68;96575.63;4901688;29;20091;-78
2023/07/05 10:37:31;;;;;;;2.70;2.35;;;;;;;19.91;68.55;96575.47;4901125;29;20216;-78
2023/07/05 10:40:00;;;;;;;4.72;2.80;;;;;;;19.99;67.96;96576.91;4901824;29;20413;-78
2023/07/05 10:42:29;;;;;;;4.72;2.40;;;;;;;20.07;67.67;96573.88;4918645;29;20052;-78
2023/07/05 10:44:59;;;;;;;3.08;2.30;;;;;;;20.21;67.05;96578.81;4919504;29;20053;-78
2023/07/05 10:47:30;;;;;;;2.70;2.38;;;;;;;20.35;66.81;96580.84;4910670;29;20116;-78
2023/07/05 10:50:04;;;;;;;2.83;2.47;;;;;;;20.46;67.24;96578.34;4903757;29;20059;-79
2023/07/05 10:52:36;;;;;;;3.00;2.10;;;;;;;20.56;65.18;96579.28;4904135;29;20085;-79
2023/07/05 10:55:13;;;;;;;2.37;1.97;;;;;;;20.69;65.44;96580.00;4903073;29;20140;-78
2023/07/05 10:57:43;;;;;;;4.63;2.20;;;;;;;20.80;64.92;96576.41;4902708;29;20148;-79
2023/07/05 11:00:28;;;;;;;3.72;2.08;;;;;;;20.92;64.11;96574.41;4900934;29;20048;-78
2023/07/05 11:03:10;;;;;;;2.78;2.05;;;;;;;21.05;64.31;96581.19;4901471;29;20064;-79
2023/07/05 11:05:42;;;;;;;3.78;2.30;;;;;;;21.14;63.44;96573.59;4901389;29;20063;-78
2023/07/05 11:08:19;;;;;;;;;;;;;;;21.22;63.56;96575.03;4901902;29;20053;-79
2023/07/05 11:10:52;;;;;;;4.03;2.55;;;;;;;21.28;62.69;96577.47;4900541;29;19939;-78
2023/07/05 11:13:20;;;;;;;2.92;2.40;;;;;;;21.30;61.13;96570.06;4909107;29;20485;-78
2023/07/05 11:15:49;;;;;;;3.80;2.28;;;;;;;21.38;61.31;96572.28;4902412;29;20088;-79
2023/07/05 11:18:18;;;;;;;4.43;2.10;;;;;;;21.49;61.85;96564.41;4901946;29;20064;-79
2023/07/05 11:20:49;;;;;;;2.63;2.03;;;;;;;21.58;61.56;96576.16;4901672;29;20486;-79
2023/07/05 11:23:50;;;;;;;2.50;2.30;;;;;;;21.62;59.14;96571.97;4900721;29;20073;-79
2023/07/05 11:26:34;;;;;;;3.53;2.08;;;;;;;21.70;59.76;96565.41;4900429;29;20056;-78
2023/07/05 11:29:37;;;;;;;6.32;2.42;;;;;;;21.76;59.74;96567.84;4900410;29;20068;-79
2023/07/05 11:32:08;;;;;;;2.55;2.00;;;;;;;21.81;59.69;96559.91;4898904;29;20052;-79
2023/07/05 11:34:48;;;;;;;2.30;1.90;;;;;;;21.93;58.35;96564.22;4900697;29;20084;-79
2023/07/05 11:37:48;;;;;;;4.10;2.10;;;;;;;22.02;57.50;96560.06;4901416;29;20053;-79
2023/07/05 11:41:04;;;;;;;3.85;2.33;;;;;;;22.11;57.61;96550.56;4899637;29;20091;-78
2023/07/05 11:43:40;;;;;;;3.33;2.17;;;;;;;22.20;56.69;96556.97;4900186;29;20535;-78
2023/07/05 11:46:38;;;;;;;3.22;2.28;;;;;;;22.26;57.27;96555.19;4901122;29;20049;-79
2023/07/05 11:49:23;;;;;;;3.17;1.98;;;;;;;22.28;54.88;96557.56;4920120;29;20039;-78
2023/07/05 11:51:55;;;;;;;2.53;1.88;;;;;;;22.29;55.61;96545.91;4920642;29;20053;-78
2023/07/05 11:54:28;;;;;;;1.90;1.55;;;;;;;22.30;55.03;96540.34;4921537;29;20047;-78
2023/07/05 11:56:59;;;;;;;3.10;1.90;;;;;;;22.40;54.55;96544.88;4908935;29;20048;-79
2023/07/05 11:59:33;;;;;;;2.30;1.70;;;;;;;22.49;54.23;96531.91;4900829;29;20083;-79
2023/07/05 12:02:11;;;;;;;4.05;2.05;;;;;;;22.57;53.60;96534.06;4900893;29;20283;-79